| weather.gov |
| Leesburg International Airport |
| metric |
| D a t e | Time (est) |
Wind (mph) | Vis. (mi.) | Weather | Sky Cond. | Temperature (ºF) | Relative Humidity | Wind Chill (°F) | Heat Index (°F) | Pressure | Precipitation (in.) | ||||||
|---|---|---|---|---|---|---|---|---|---|---|---|---|---|---|---|---|---|
| Air | Dwpt | 6 hour | altimeter (in) | sea level (mb) | 1 hr | 3 hr | 6 hr | ||||||||||
| Max. | Min. | ||||||||||||||||
| 08 | 22:53 | SE 3 | 10.00 | Fair | CLR | 65 | 58 | 78% | NA | NA | 30.19 | 1022.2 | |||||
| 08 | 21:53 | E 8 | 10.00 | Fair | CLR | 66 | 57 | 73% | NA | NA | 30.18 | 1021.7 | |||||
| 08 | 20:53 | E 10 | 10.00 | Fair | CLR | 67 | 57 | 71% | NA | NA | 30.17 | 1021.5 | |||||
| 08 | 19:53 | E 12 | 10.00 | Mostly Cloudy | FEW090 BKN110 | 67 | 57 | 71% | NA | NA | 30.17 | 1021.5 | |||||
| 08 | 18:53 | E 10 | 10.00 | Fair | CLR | 67 | 57 | 75 | 67 | 71% | NA | NA | 30.17 | 1021.6 | |||
| 08 | 17:53 | E 5 | 10.00 | Mostly Cloudy | BKN110 | 68 | 57 | 68% | NA | NA | 30.17 | 1021.5 | |||||
| 08 | 16:53 | E 7 | 10.00 | Fair | CLR | 69 | 56 | 63% | NA | NA | 30.16 | 1021.1 | |||||
| 08 | 15:53 | Calm | 10.00 | A Few Clouds | FEW100 FEW120 | 71 | 56 | 59% | NA | NA | 30.16 | 1021.1 | |||||
| 08 | 14:53 | SE 5 | 10.00 | Fair | CLR | 72 | 55 | 55% | NA | NA | 30.16 | 1021.2 | |||||
| 08 | 13:53 | E 9 | 10.00 | Fair | CLR | 74 | 56 | 54% | NA | NA | 30.17 | 1021.4 | |||||
| 08 | 12:53 | E 7 | 10.00 | Fair | CLR | 74 | 55 | 74 | 52 | 52% | NA | NA | 30.19 | 1022.3 | |||
| 08 | 11:53 | SE 6 | 10.00 | A Few Clouds | FEW050 | 71 | 55 | 57% | NA | NA | 30.22 | 1023.3 | |||||
| 08 | 10:53 | E 6 | 10.00 | Fair | CLR | 69 | 56 | 63% | NA | NA | 30.25 | 1024.1 | |||||
| 08 | 09:53 | E 3 | 10.00 | Fair | CLR | 65 | 55 | 70% | NA | NA | 30.25 | 1024.3 | |||||
| 08 | 08:53 | NE 3 | 10.00 | Partly Cloudy | SCT049 | 61 | 57 | 87% | NA | NA | 30.24 | 1023.9 | |||||
| 08 | 07:53 | NE 3 | 10.00 | Mostly Cloudy | BKN046 | 56 | 54 | 93% | NA | NA | 30.22 | 1023.3 | |||||
| 08 | 06:53 | Calm | 10.00 | A Few Clouds | FEW046 | 53 | 52 | 57 | 51 | 96% | NA | NA | 30.21 | 1022.9 | |||
| 08 | 05:53 | Calm | 10.00 | Fair | CLR | 53 | 52 | 96% | NA | NA | 30.19 | 1022.0 | |||||
| 08 | 04:53 | NE 3 | 10.00 | Fair | CLR | 56 | 53 | 90% | NA | NA | 30.17 | 1021.7 | |||||
| 08 | 03:53 | NE 5 | 10.00 | Fair | CLR | 55 | 53 | 93% | NA | NA | 30.17 | 1021.6 | |||||
| 08 | 02:53 | E 3 | 10.00 | Fair | CLR | 57 | 54 | 90% | NA | NA | 30.18 | 1021.9 | |||||
| 08 | 01:53 | E 3 | 10.00 | Fair | CLR | 52 | 51 | 97% | NA | NA | 30.19 | 1022.3 | |||||
| 08 | 00:53 | Calm | 10.00 | Fair | CLR | 54 | 52 | 57 | 52 | 93% | NA | NA | 30.19 | 1022.3 | |||
| 07 | 23:53 | Calm | 10.00 | Fair | CLR | 54 | 51 | 90% | NA | NA | 30.20 | 1022.6 | |||||
| 07 | 22:53 | Calm | 10.00 | Fair | CLR | 53 | 50 | 89% | NA | NA | 30.22 | 1023.1 | |||||
| 07 | 21:53 | Calm | 10.00 | Fair | CLR | 54 | 49 | 83% | NA | NA | 30.22 | 1023.3 | |||||
| 07 | 20:53 | E 3 | 10.00 | Fair | CLR | 57 | 51 | 81% | NA | NA | 30.22 | 1023.1 | |||||
| 07 | 19:53 | NE 5 | 10.00 | Fair | CLR | 56 | 49 | 77% | NA | NA | 30.22 | 1023.3 | |||||
| 07 | 18:53 | NE 5 | 10.00 | Fair | CLR | 57 | 49 | 68 | 57 | 74% | NA | NA | 30.21 | 1023.1 | |||
| 07 | 17:53 | NE 6 | 10.00 | Fair | CLR | 60 | 49 | 67% | NA | NA | 30.20 | 1022.5 | |||||
| 07 | 16:53 | NE 7 | 10.00 | Fair | CLR | 65 | 48 | 54% | NA | NA | 30.20 | 1022.4 | |||||
| 07 | 15:53 | NE 7 | 10.00 | Fair | CLR | 68 | 47 | 47% | NA | NA | 30.19 | 1022.2 | |||||
| 07 | 14:53 | Vrbl 3 | 10.00 | Fair | CLR | 67 | 46 | 47% | NA | NA | 30.19 | 1022.2 | |||||
| 07 | 13:53 | NE 6 | 10.00 | Fair | CLR | 67 | 46 | 47% | NA | NA | 30.21 | 1022.9 | |||||
| 07 | 12:53 | N 5 | 10.00 | Fair | CLR | 66 | 45 | 67 | 46 | 47% | NA | NA | 30.23 | 1023.5 | |||
| 07 | 11:53 | NE 8 | 10.00 | Fair | CLR | 65 | 43 | 45% | NA | NA | 30.26 | 1024.4 | |||||
| 07 | 10:53 | Vrbl 5 | 10.00 | Fair | CLR | 62 | 42 | 48% | NA | NA | 30.29 | 1025.4 | |||||
| 07 | 09:53 | N 8 | 10.00 | Fair | CLR | 58 | 41 | 53% | NA | NA | 30.29 | 1025.7 | |||||
| 07 | 08:53 | N 8 | 10.00 | Fair | CLR | 52 | 38 | 59% | NA | NA | 30.29 | 1025.8 | |||||
| 07 | 07:53 | N 7 | 10.00 | Fair | CLR | 48 | 39 | 71% | 45 | NA | 30.29 | 1025.6 | |||||
| 07 | 06:53 | N 6 | 10.00 | Fair | CLR | 46 | 41 | 47 | 45 | 83% | 43 | NA | 30.28 | 1025.2 | |||
| 07 | 05:53 | NW 5 | 10.00 | Fair | CLR | 45 | 40 | 83% | 42 | NA | 30.26 | 1024.7 | |||||
| 07 | 04:53 | NW 6 | 10.00 | Fair | CLR | 45 | 41 | 86% | 42 | NA | 30.25 | 1024.3 | |||||
| 07 | 03:53 | NW 5 | 10.00 | Fair | CLR | 46 | 41 | 83% | 44 | NA | 30.24 | 1023.9 | |||||
| 07 | 02:53 | NW 5 | 10.00 | Fair | CLR | 47 | 38 | 71% | 45 | NA | 30.23 | 1023.6 | |||||
| 07 | 01:53 | N 6 | 10.00 | Fair | CLR | 46 | 38 | 73% | 43 | NA | 30.23 | 1023.5 | |||||
| 07 | 00:53 | N 7 | 10.00 | Fair | CLR | 47 | 39 | 53 | 46 | 74% | 44 | NA | 30.22 | 1023.4 | |||
| 06 | 23:53 | N 5 | 10.00 | Fair | CLR | 46 | 38 | 73% | 44 | NA | 30.24 | 1023.7 | |||||
| 06 | 22:53 | N 5 | 10.00 | Fair | CLR | 49 | 40 | 71% | 47 | NA | 30.25 | 1024.1 | |||||
| 06 | 21:53 | N 5 | 10.00 | Fair | CLR | 47 | 41 | 80% | 45 | NA | 30.24 | 1023.7 | |||||
| 06 | 20:53 | N 5 | 10.00 | Fair | CLR | 49 | 42 | 77% | 47 | NA | 30.22 | 1023.3 | |||||
| 06 | 19:53 | Calm | 10.00 | Fair | CLR | 49 | 39 | 69% | NA | NA | 30.22 | 1023.2 | |||||
| 06 | 18:53 | NE 3 | 10.00 | Fair | CLR | 52 | 39 | 63 | 52 | 61% | NA | NA | 30.19 | 1022.4 | |||
| 06 | 17:53 | N 5 | 10.00 | Fair | CLR | 56 | 38 | 51% | NA | NA | 30.18 | 1021.7 | |||||
| 06 | 16:53 | N 10 | 10.00 | Fair | CLR | 60 | 36 | 41% | NA | NA | 30.16 | 1021.3 | |||||
| 06 | 15:53 | N 13 G 18 | 10.00 | Fair | CLR | 62 | 36 | 38% | NA | NA | 30.14 | 1020.4 | |||||
| 06 | 14:53 | N 12 | 10.00 | Fair | CLR | 62 | 35 | 37% | NA | NA | 30.13 | 1020.2 | |||||
| 06 | 13:53 | NW 10 | 10.00 | Fair | CLR | 62 | 36 | 38% | NA | NA | 30.14 | 1020.5 | |||||
| 06 | 12:53 | N 9 G 20 | 10.00 | Fair | CLR | 61 | 35 | 61 | 52 | 38% | NA | NA | 30.15 | 1020.8 | |||
| 06 | 11:53 | N 15 G 22 | 10.00 | Fair | CLR | 60 | 35 | 39% | NA | NA | 30.17 | 1021.6 | |||||
| 06 | 10:53 | NW 14 G 25 | 10.00 | Fair | CLR | 59 | 33 | 38% | NA | NA | 30.18 | 1021.7 | |||||
| 06 | 09:53 | NW 10 G 20 | 10.00 | Fair | CLR | 58 | 38 | 48% | NA | NA | 30.18 | 1021.8 | |||||
| 06 | 08:53 | NW 9 | 10.00 | Fair | CLR | 56 | 41 | 57% | NA | NA | 30.18 | 1021.8 | |||||
| 06 | 07:53 | NW 9 | 10.00 | Fair | CLR | 53 | 42 | 66% | NA | NA | 30.17 | 1021.3 | |||||
| 06 | 06:53 | NW 9 | 10.00 | Fair | CLR | 52 | 42 | 56 | 51 | 69% | NA | NA | 30.15 | 1020.9 | |||
| 06 | 05:53 | NW 8 | 10.00 | Fair | CLR | 52 | 42 | 69% | NA | NA | 30.12 | 1019.6 | |||||
| 06 | 04:53 | NW 8 | 10.00 | Fair | CLR | 53 | 43 | 69% | NA | NA | 30.11 | 1019.4 | |||||
| 06 | 03:53 | NW 9 | 10.00 | Fair | CLR | 54 | 44 | 69% | NA | NA | 30.11 | 1019.4 | |||||
| 06 | 02:53 | NW 7 | 10.00 | Fair | CLR | 54 | 45 | 72% | NA | NA | 30.10 | 1019.0 | |||||
| 06 | 01:53 | NW 9 | 10.00 | Fair | CLR | 56 | 45 | 67% | NA | NA | 30.09 | 1018.9 | |||||
| 06 | 00:53 | NW 8 | 10.00 | Fair | CLR | 56 | 46 | 60 | 56 | 70% | NA | NA | 30.09 | 1018.8 | |||
| 05 | 23:53 | NW 9 | 10.00 | Fair | CLR | 56 | 45 | 67% | NA | NA | 30.11 | 1019.3 | |||||
| D a t e | Time (est) |
Wind (mph) | Vis. (mi.) | Weather | Sky Cond. | Air | Dwpt | Max. | Min. | Relative Humidity | Wind Chill (°F) | Heat Index (°F) | altimeter (in.) | sea level (mb) |
1 hr | 3 hr | 6 hr |
| 6 hour | |||||||||||||||||
| Temperature (ºF) | Pressure | Precipitation (in.) | |||||||||||||||
| National Weather Service Southern Region Headquarters Fort Worth, Texas Disclaimer |
Last Modified: Febuary, 7 2012 Privacy Policy |
|